createdAt,value
2024-03-04T00:00:00.976Z,5.09
2024-03-04T00:05:29.162Z,5.01
2024-03-04T00:10:36.504Z,4.95
2024-03-04T00:15:43.829Z,4.89
2024-03-04T00:20:50.960Z,4.82
2024-03-04T00:25:58.210Z,4.78
2024-03-04T00:31:05.870Z,4.77
2024-03-04T00:36:13.355Z,4.78
2024-03-04T00:41:27.227Z,4.79
2024-03-04T00:46:34.694Z,4.81
2024-03-04T00:51:41.997Z,4.82
2024-03-04T00:56:49.238Z,4.81
2024-03-04T01:01:57.514Z,4.78
2024-03-04T01:07:04.860Z,4.73
2024-03-04T01:12:12.169Z,4.66
2024-03-04T01:17:19.427Z,4.59
2024-03-04T01:22:28.092Z,4.53
2024-03-04T01:27:37.093Z,4.47
2024-03-04T01:32:44.369Z,4.42
2024-03-04T01:37:52.110Z,4.37
2024-03-04T01:43:00.146Z,4.33
2024-03-04T01:48:07.752Z,4.29
2024-03-04T01:53:17.042Z,4.26
2024-03-04T01:58:25.222Z,4.25
2024-03-04T02:03:36.992Z,4.27
2024-03-04T02:08:44.247Z,4.32
2024-03-04T02:13:51.958Z,4.36
2024-03-04T02:18:59.187Z,4.39
2024-03-04T02:24:06.954Z,4.40
2024-03-04T02:29:14.767Z,4.39
2024-03-04T02:34:22.058Z,4.38
2024-03-04T02:39:29.588Z,4.38
2024-03-04T02:44:37.149Z,4.39
2024-03-04T02:49:44.922Z,4.38
2024-03-04T02:54:52.049Z,4.39
2024-03-04T02:59:59.301Z,4.37
2024-03-04T03:05:08.056Z,4.34
2024-03-04T03:10:17.104Z,4.33
2024-03-04T03:15:24.349Z,4.31
2024-03-04T03:20:31.771Z,4.27
2024-03-04T03:25:39.124Z,4.24
2024-03-04T03:30:46.349Z,4.19
2024-03-04T03:35:53.513Z,4.14
2024-03-04T03:41:01.466Z,4.09
2024-03-04T03:46:07.123Z,4.06
2024-03-04T03:51:14.369Z,4.01
2024-03-04T03:56:21.724Z,3.96
2024-03-04T04:01:28.939Z,3.93
2024-03-04T04:06:36.259Z,3.90
2024-03-04T04:11:46.001Z,3.90
2024-03-04T04:16:53.234Z,3.91
2024-03-04T04:22:01.751Z,3.90
2024-03-04T04:27:09.716Z,3.89
2024-03-04T04:32:15.273Z,3.87
2024-03-04T04:37:22.565Z,3.84
2024-03-04T04:42:30.202Z,3.80
2024-03-04T04:47:37.416Z,3.78
2024-03-04T04:52:44.613Z,3.79
2024-03-04T04:57:51.961Z,3.82
2024-03-04T05:02:59.072Z,3.82
2024-03-04T05:08:06.886Z,3.83
2024-03-04T05:13:14.047Z,3.83
2024-03-04T05:18:21.264Z,3.83
2024-03-04T05:23:28.423Z,3.82
2024-03-04T05:28:35.667Z,3.78
2024-03-04T05:33:43.714Z,3.73
2024-03-04T05:38:50.936Z,3.66
2024-03-04T05:43:58.212Z,3.56
2024-03-04T05:49:05.838Z,3.48
2024-03-04T05:54:13.374Z,3.41
2024-03-04T05:59:22.360Z,3.35
2024-03-04T06:04:29.962Z,3.31
2024-03-04T06:09:37.305Z,3.30
2024-03-04T06:14:44.375Z,3.29
2024-03-04T06:19:51.593Z,3.27
2024-03-04T06:24:58.778Z,3.25
2024-03-04T06:30:14.054Z,3.24
2024-03-04T06:35:21.796Z,3.27
2024-03-04T06:40:29.171Z,3.28
2024-03-04T06:45:37.683Z,3.26
2024-03-04T06:50:45.471Z,3.25
2024-03-04T06:55:53.256Z,3.27
2024-03-04T07:01:00.645Z,3.29
2024-03-04T07:06:14.639Z,3.31
2024-03-04T07:11:22.041Z,3.31
2024-03-04T07:16:29.393Z,3.34
2024-03-04T07:21:36.654Z,3.35
2024-03-04T07:26:44.155Z,3.37
2024-03-04T07:31:51.744Z,3.41
2024-03-04T07:36:59.658Z,3.44
2024-03-04T07:42:07.545Z,3.49
2024-03-04T07:47:14.828Z,3.52
2024-03-04T07:52:22.162Z,3.56
2024-03-04T07:57:29.823Z,3.62
2024-03-04T08:02:37.200Z,3.71
2024-03-04T08:07:44.637Z,3.80
2024-03-04T08:12:52.055Z,3.84
2024-03-04T08:18:00.778Z,3.88
2024-03-04T08:23:08.510Z,3.89
2024-03-04T08:28:20.353Z,3.89
2024-03-04T08:33:36.520Z,3.91
2024-03-04T08:38:43.926Z,3.99
2024-03-04T08:43:51.674Z,4.10
2024-03-04T08:48:59.013Z,4.27
2024-03-04T08:54:06.526Z,4.42
2024-03-04T08:59:13.699Z,4.52
2024-03-04T09:04:21.237Z,4.59
2024-03-04T09:09:28.690Z,4.66
2024-03-04T09:14:36.064Z,4.73
2024-03-04T09:19:46.162Z,4.78
2024-03-04T09:24:53.956Z,4.83
2024-03-04T09:30:01.384Z,4.96
2024-03-04T09:35:08.109Z,5.37
2024-03-04T09:40:17.566Z,6.02
2024-03-04T09:45:26.896Z,6.71
2024-03-04T09:50:35.647Z,7.46
2024-03-04T09:55:43.412Z,8.08
2024-03-04T10:00:51.314Z,8.22
2024-03-04T10:05:59.460Z,8.05
2024-03-04T10:11:07.119Z,7.84
2024-03-04T10:16:16.995Z,7.50
2024-03-04T10:21:24.401Z,7.06
2024-03-04T10:26:43.646Z,6.81
2024-03-04T10:31:55.141Z,6.60
2024-03-04T10:37:04.427Z,6.48
2024-03-04T10:42:16.573Z,6.49
2024-03-04T10:47:24.414Z,6.65
2024-03-04T10:52:31.768Z,6.77
2024-03-04T10:57:44.270Z,6.92
2024-03-04T11:02:58.669Z,7.15
2024-03-04T11:08:09.858Z,7.30
2024-03-04T11:13:27.912Z,7.48
2024-03-04T11:18:42.398Z,7.61
2024-03-04T11:23:51.838Z,7.60
2024-03-04T11:28:59.693Z,7.56
2024-03-04T11:34:11.087Z,7.46
2024-03-04T11:39:22.346Z,7.47
2024-03-04T11:44:30.923Z,7.51
2024-03-04T11:49:47.279Z,7.52
2024-03-04T11:54:58.581Z,7.54
2024-03-04T12:00:10.835Z,7.55
2024-03-04T12:05:18.524Z,7.56
2024-03-04T12:10:27.153Z,7.51
2024-03-04T12:15:34.475Z,7.46
2024-03-04T12:20:44.326Z,7.36
2024-03-04T12:25:51.745Z,7.27
2024-03-04T12:30:59.796Z,7.29
2024-03-04T12:36:08.438Z,7.30
2024-03-04T12:41:22.961Z,7.32
2024-03-04T12:46:30.274Z,7.35
2024-03-04T12:51:38.781Z,7.29
2024-03-04T12:56:46.377Z,7.20
2024-03-04T13:01:56.503Z,7.15
2024-03-04T13:07:05.754Z,7.12
2024-03-04T13:12:14.233Z,7.13
2024-03-04T13:18:03.913Z,7.09
2024-03-04T13:23:11.736Z,7.07
2024-03-04T13:28:19.422Z,7.08
2024-03-04T13:34:39.210Z,7.05
2024-03-04T13:39:55.498Z,7.01
2024-03-04T13:45:03.677Z,6.95
2024-03-04T13:51:27.885Z,6.88
2024-03-04T13:56:41.126Z,6.81
2024-03-04T14:01:48.662Z,6.78
2024-03-04T14:06:56.278Z,6.75
2024-03-04T14:12:03.858Z,6.72
2024-03-04T14:17:11.681Z,6.65
2024-03-04T14:22:19.100Z,6.59
2024-03-04T14:27:27.367Z,6.58
2024-03-04T14:32:33.398Z,6.58
2024-03-04T14:37:40.939Z,6.54
2024-03-04T14:42:48.317Z,6.48
2024-03-04T14:47:57.390Z,6.42
2024-03-04T14:53:05.639Z,6.38
2024-03-04T14:58:31.291Z,6.31
2024-03-04T15:04:06.862Z,6.25
2024-03-04T15:10:05.625Z,6.23
2024-03-04T15:15:17.076Z,6.24
2024-03-04T15:20:29.569Z,6.25
2024-03-04T15:25:40.397Z,6.24
2024-03-04T15:30:49.031Z,6.24
2024-03-04T15:36:09.917Z,6.24
2024-03-04T15:41:25.100Z,6.24
2024-03-04T15:46:32.484Z,6.23
2024-03-04T15:51:45.349Z,6.21
2024-03-04T15:56:52.885Z,6.19
2024-03-04T16:02:00.781Z,6.18
2024-03-04T16:07:08.184Z,6.16
2024-03-04T16:12:16.028Z,6.12
2024-03-04T16:17:23.458Z,6.09
2024-03-04T16:22:31.084Z,6.05
2024-03-04T16:27:38.460Z,6.01
2024-03-04T16:32:45.889Z,5.98
2024-03-04T16:37:53.443Z,5.96
2024-03-04T16:43:01.380Z,5.93
2024-03-04T16:48:09.468Z,5.90
2024-03-04T16:53:16.009Z,5.87
2024-03-04T16:58:23.236Z,5.84
2024-03-04T17:03:30.630Z,5.83
2024-03-04T17:08:38.334Z,5.83
2024-03-04T17:13:45.755Z,5.82
2024-03-04T17:18:53.064Z,5.81
2024-03-04T17:24:00.830Z,5.81
2024-03-04T17:29:10.825Z,5.78
2024-03-04T17:34:18.477Z,5.76
2024-03-04T17:39:25.885Z,5.74
2024-03-04T17:45:20.503Z,5.70
2024-03-04T17:50:30.818Z,5.65
2024-03-04T17:55:47.962Z,5.57
2024-03-04T18:00:57.767Z,5.48
2024-03-04T18:06:06.485Z,5.37
2024-03-04T18:11:14.614Z,5.24
2024-03-04T18:16:22.324Z,5.15
2024-03-04T18:21:30.409Z,5.04
2024-03-04T18:26:36.585Z,4.94
2024-03-04T18:31:44.459Z,4.84
2024-03-04T18:36:50.409Z,4.74
2024-03-04T18:42:00.392Z,4.63
2024-03-04T18:47:07.811Z,4.53
2024-03-04T18:52:16.003Z,4.44
2024-03-04T18:57:24.690Z,4.35
2024-03-04T19:02:32.228Z,4.27
2024-03-04T19:07:39.717Z,4.20
2024-03-04T19:12:47.455Z,4.13
2024-03-04T19:17:55.183Z,4.08
2024-03-04T19:23:02.742Z,4.02
2024-03-04T19:28:13.379Z,3.93
2024-03-04T19:33:22.888Z,3.86
2024-03-04T19:38:30.879Z,3.79
2024-03-04T19:43:38.317Z,3.74
2024-03-04T19:48:47.223Z,3.69
2024-03-04T19:53:55.261Z,3.66
2024-03-04T19:59:03.115Z,3.64
2024-03-04T20:04:10.749Z,3.62
2024-03-04T20:09:18.147Z,3.61
2024-03-04T20:14:25.832Z,3.61
2024-03-04T20:19:33.309Z,3.62
2024-03-04T20:24:40.751Z,3.64
2024-03-04T20:29:48.847Z,3.65
2024-03-04T20:34:55.220Z,3.66
2024-03-04T20:40:17.713Z,3.67
2024-03-04T20:46:14.816Z,3.67
2024-03-04T20:51:35.890Z,3.67
2024-03-04T20:56:44.269Z,3.66
2024-03-04T21:01:51.860Z,3.65
2024-03-04T21:06:59.463Z,3.64
2024-03-04T21:12:07.529Z,3.63
2024-03-04T21:17:13.389Z,3.61
2024-03-04T21:22:24.043Z,3.59
2024-03-04T21:27:32.063Z,3.57
2024-03-04T21:32:40.097Z,3.55
2024-03-04T21:37:46.374Z,3.52
2024-03-04T21:42:55.231Z,3.49
2024-03-04T21:48:02.463Z,3.47
2024-03-04T21:53:09.868Z,3.44
2024-03-04T21:58:19.347Z,3.41
2024-03-04T22:03:26.885Z,3.38
2024-03-04T22:08:36.426Z,3.35
2024-03-04T22:13:51.891Z,3.29
2024-03-04T22:19:05.569Z,3.23
2024-03-04T22:24:13.202Z,3.17
2024-03-04T22:29:20.904Z,3.11
2024-03-04T22:34:31.086Z,3.05
2024-03-04T22:39:43.094Z,2.99
2024-03-04T22:44:58.764Z,2.92
2024-03-04T22:50:10.076Z,2.85
2024-03-04T22:55:17.862Z,2.79
2024-03-04T23:00:29.770Z,2.73
2024-03-04T23:05:37.222Z,2.67
2024-03-04T23:10:44.740Z,2.60
2024-03-04T23:15:52.924Z,2.54
2024-03-04T23:21:00.728Z,2.48
2024-03-04T23:26:08.452Z,2.43
2024-03-04T23:31:15.977Z,2.37
2024-03-04T23:36:24.522Z,2.30
2024-03-04T23:41:32.403Z,2.24
2024-03-04T23:46:39.749Z,2.18
2024-03-04T23:51:47.077Z,2.15
2024-03-04T23:56:54.294Z,2.13
